createdAt,value
2022-08-16T00:01:45.255Z,217.77778
2022-08-16T00:06:46.896Z,140.80511
2022-08-16T00:11:48.682Z,156.41379
2022-08-16T00:17:06.560Z,124.11696
2022-08-16T00:22:20.727Z,166.38267
2022-08-16T00:27:23.175Z,126.78932
2022-08-16T00:32:24.798Z,132.95706
2022-08-16T00:37:56.980Z,171.30627
2022-08-16T00:42:59.815Z,155.68385
2022-08-16T00:48:01.547Z,130.66667
2022-08-16T00:53:30.904Z,104.83551
2022-08-16T00:58:34.781Z,89.62648
2022-08-16T01:03:37.004Z,140.17834
2022-08-16T01:08:43.343Z,120
2022-08-16T01:13:47.800Z,131.80488
2022-08-16T01:18:50.012Z,144.65147
2022-08-16T01:23:58.693Z,116.54902
2022-08-16T01:29:03.093Z,138.93671
2022-08-16T01:34:07.064Z,140.80511
2022-08-16T01:39:11.614Z,138.32177
2022-08-16T01:44:13.600Z,106.53298
2022-08-16T01:49:20.311Z,141.4359
2022-08-16T01:54:30.644Z,124.64516
2022-08-16T01:59:32.968Z,103.58549
2022-08-16T02:04:49.166Z,100.34518
2022-08-16T02:09:57.481Z,91.36842
2022-08-16T02:15:01.515Z,84.9611
2022-08-16T02:20:03.201Z,138.93671
2022-08-16T02:25:14.707Z,112.76712
2022-08-16T02:30:35.914Z,97.61596
2022-08-16T02:35:54.559Z,98.77387
2022-08-16T02:41:00.275Z,102.35476
2022-08-16T02:46:07.487Z,80.58537
2022-08-16T02:51:11.390Z,90.31829
2022-08-16T02:56:14.772Z,88.94118
2022-08-16T03:01:24.795Z,88.60094
2022-08-16T03:06:36.401Z,97.61596
2022-08-16T03:11:44.269Z,79.98234
2022-08-16T03:16:59.392Z,75.06383
2022-08-16T03:22:02.173Z,69.71429
2022-08-16T03:27:03.793Z,71.53623
2022-08-16T03:32:08.400Z,82.11659
2022-08-16T03:37:10.014Z,68.94929
2022-08-16T03:42:11.724Z,81.5
2022-08-16T03:47:27.259Z,89.97156
2022-08-16T03:52:36.024Z,87.58974
2022-08-16T03:57:37.899Z,91.01671
2022-08-16T04:02:42.454Z,92.79227
2022-08-16T04:07:44.236Z,84.31891
2022-08-16T04:13:20.358Z,79.08772
2022-08-16T04:19:04.103Z,79.98234
2022-08-16T04:24:08.052Z,82.11659
2022-08-16T04:29:16.892Z,76.18884
2022-08-16T04:34:26.543Z,72.33333
2022-08-16T04:39:45.694Z,76.18884
2022-08-16T04:44:53.816Z,71.01031
2022-08-16T04:49:57.203Z,69.71429
2022-08-16T04:54:59.311Z,64.07797
2022-08-16T05:00:30.888Z,76.75862
2022-08-16T05:05:36.877Z,72.06653
2022-08-16T05:10:58.922Z,71.01031
2022-08-16T05:16:02.339Z,69.97137
2022-08-16T05:21:09.543Z,67.2
2022-08-16T05:26:19.804Z,66.70916
2022-08-16T05:31:22.260Z,77.91304
2022-08-16T05:36:24.911Z,75.90578
2022-08-16T05:41:45.326Z,67.69478
2022-08-16T05:46:47.717Z,67.69478
2022-08-16T05:51:53.601Z,69.71429
2022-08-16T05:56:57.220Z,68.94929
2022-08-16T06:01:58.865Z,64.54795
2022-08-16T06:07:03.464Z,68.69636
2022-08-16T06:12:08.787Z,68.44444
2022-08-16T06:17:10.396Z,74.23256
2022-08-16T06:22:19.379Z,83.68254
2022-08-16T06:27:40.914Z,89.62648
2022-08-16T06:32:42.956Z,81.80761
2022-08-16T06:37:47.540Z,80.58537
2022-08-16T06:42:57.342Z,75.34328
2022-08-16T06:47:59.406Z,70.22951
2022-08-16T06:53:09.086Z,71.01031
2022-08-16T06:58:22.141Z,70.74897
2022-08-16T07:03:28.267Z,71.80083
2022-08-16T07:08:34.106Z,77.04536
2022-08-16T07:14:00.137Z,80.88889
2022-08-16T07:20:03.734Z,72.33333
2022-08-16T07:25:31.124Z,73.68421
2022-08-16T07:30:45.196Z,72.06653
2022-08-16T07:35:49.587Z,88.60094
2022-08-16T07:41:00.372Z,75.06383
2022-08-16T07:46:02.741Z,69.45825
2022-08-16T07:51:08.838Z,87.25581
2022-08-16T07:56:10.813Z,79.98234
2022-08-16T08:01:12.693Z,73.95781
2022-08-16T08:06:16.631Z,86.26328
2022-08-16T08:11:18.510Z,80.28319
2022-08-16T08:16:20.945Z,76.18884
2022-08-16T08:21:27.315Z,79.08772
2022-08-16T08:26:29.587Z,88.60094
2022-08-16T08:31:31.700Z,76.18884
2022-08-16T08:36:35.984Z,73.14046
2022-08-16T08:41:38.788Z,79.08772
2022-08-16T08:46:40.752Z,91.72182
2022-08-16T08:51:43.009Z,86.26328
2022-08-16T08:56:45.308Z,81.5
2022-08-16T09:01:56.793Z,78.20479
2022-08-16T09:07:01.374Z,93.15254
2022-08-16T09:12:06.451Z,78.49782
2022-08-16T09:17:21.672Z,74.50847
2022-08-16T09:22:33.564Z,72.60125
2022-08-16T09:27:56.878Z,88.60094
2022-08-16T09:33:02.778Z,81.5
2022-08-16T09:38:05.474Z,79.68282
2022-08-16T09:43:21.024Z,75.06383
2022-08-16T09:48:50.985Z,78.79212
2022-08-16T09:53:53.885Z,85.6092
2022-08-16T09:59:04.961Z,85.2844
2022-08-16T10:04:31.332Z,119.49858
2022-08-16T10:09:53.874Z,92.79227
2022-08-16T10:14:57.706Z,89.28302
2022-08-16T10:19:59.885Z,87.92523
2022-08-16T10:25:01.651Z,85.93548
2022-08-16T10:30:07.095Z,78.79212
2022-08-16T10:35:33.011Z,79.68282
2022-08-16T10:40:34.981Z,78.20479
2022-08-16T10:45:37.503Z,73.68421
2022-08-16T10:50:39.111Z,79.08772
2022-08-16T10:55:44.205Z,75.62393
2022-08-16T11:00:46.566Z,82.73874
2022-08-16T11:06:00.703Z,79.98234
2022-08-16T11:11:10.608Z,89.62648
2022-08-16T11:16:27.379Z,75.34328
2022-08-16T11:21:29.846Z,73.14046
2022-08-16T11:26:31.514Z,78.20479
2022-08-16T11:31:33.297Z,86.26328
2022-08-16T11:36:36.515Z,75.34328
2022-08-16T11:41:38.891Z,75.06383
2022-08-16T11:46:46.632Z,83.05192
2022-08-16T11:51:48.409Z,77.04536
2022-08-16T11:56:52.983Z,75.06383
2022-08-16T12:02:00.156Z,72.60125
2022-08-16T12:07:06.052Z,77.91304
2022-08-16T12:12:07.704Z,75.34328
2022-08-16T12:17:10.068Z,79.38462
2022-08-16T12:22:19.140Z,77.62256
2022-08-16T12:27:23.077Z,75.34328
2022-08-16T12:32:35.977Z,72.60125
2022-08-16T12:37:43.422Z,71.27273
2022-08-16T12:42:52.928Z,72.87029
2022-08-16T12:48:05.085Z,72.60125
2022-08-16T12:53:24.131Z,69.71429
2022-08-16T12:58:50.603Z,69.97137
2022-08-16T13:04:08.174Z,71.53623
2022-08-16T13:09:13.413Z,73.95781
2022-08-16T13:14:30.781Z,74.23256
2022-08-16T13:20:03.397Z,72.06653
2022-08-16T13:25:08.921Z,72.60125
2022-08-16T13:30:21.839Z,70.48871
2022-08-16T13:35:38.316Z,86.92343
2022-08-16T13:40:44.972Z,73.95781
2022-08-16T13:45:50.547Z,72.33333
2022-08-16T13:50:52.369Z,71.80083
2022-08-16T13:55:58.650Z,68.94929
2022-08-16T14:01:01.173Z,84.31891
2022-08-16T14:06:03.389Z,82.42697
2022-08-16T14:11:12.203Z,80.58537
2022-08-16T14:16:23.991Z,81.80761
2022-08-16T14:21:26.520Z,86.92343
2022-08-16T14:26:36.779Z,103.58549
2022-08-16T14:31:39.731Z,94.98039
2022-08-16T14:36:42.591Z,96.09877
2022-08-16T14:41:45.236Z,97.61596
2022-08-16T14:46:46.980Z,106.96296
2022-08-16T14:51:48.579Z,111.3913
2022-08-16T14:56:54.959Z,145.96721
2022-08-16T15:01:59.041Z,139.55556
2022-08-16T15:07:02.158Z,150.71141
2022-08-16T15:12:06.914Z,154.23891
2022-08-16T15:17:34.099Z,175.57895
2022-08-16T15:22:39.014Z,165.58273
2022-08-16T15:27:40.768Z,197.49794
2022-08-16T15:32:42.471Z,181.83784
2022-08-16T15:37:47.707Z,172.99628
2022-08-16T15:42:56.234Z,193.39271
2022-08-16T15:47:59.191Z,202.82353
2022-08-16T15:53:07.142Z,184.625
2022-08-16T15:58:34.937Z,201.74059
2022-08-16T16:03:37.531Z,189.41833
2022-08-16T16:08:41.701Z,211.82609
2022-08-16T16:13:43.668Z,196.45902
2022-08-16T16:18:48.997Z,189.41833
2022-08-16T16:23:53.067Z,188.44444
2022-08-16T16:29:08.765Z,172.99628
2022-08-16T16:34:16.853Z,183.68872
2022-08-16T16:39:18.467Z,198.54545
2022-08-16T16:44:32.054Z,197.49794
2022-08-16T16:49:41.701Z,208.37768
2022-08-16T16:54:43.601Z,202.82353
2022-08-16T16:59:48.676Z,180.92308
2022-08-16T17:04:57.296Z,182.75969
2022-08-16T17:09:58.899Z,206.12766
2022-08-16T17:15:02.253Z,203.91561
2022-08-16T17:20:04.039Z,190.4
2022-08-16T17:25:07.362Z,180.01533
2022-08-16T17:30:15.663Z,154.23891
2022-08-16T17:35:18.963Z,144.65147
2022-08-16T17:40:26.896Z,156.41379
2022-08-16T17:45:48.423Z,180.92308
2022-08-16T17:50:49.996Z,188.44444
2022-08-16T17:55:56.514Z,145.30719
2022-08-16T18:00:58.322Z,132.3792
2022-08-16T18:05:59.927Z,116.54902
2022-08-16T18:11:01.494Z,120
2022-08-16T18:16:03.113Z,98.77387
2022-08-16T18:21:04.709Z,94.2439
2022-08-16T18:26:06.344Z,111.3913
2022-08-16T18:31:07.944Z,111.84741
2022-08-16T18:36:20.185Z,99.94937
2022-08-16T18:41:23.244Z,114.16575
2022-08-16T18:46:24.841Z,122.03468
2022-08-16T18:51:26.463Z,160.90141
2022-08-16T18:56:55.229Z,171.30627
2022-08-16T19:02:04.166Z,172.99628
2022-08-16T19:07:07.021Z,202.82353
2022-08-16T19:12:08.622Z,215.36564
2022-08-16T19:17:10.211Z,240.15385
2022-08-16T19:22:11.835Z,182.75969
2022-08-16T19:27:13.450Z,230.51163
2022-08-16T19:32:15.188Z,243.02913
2022-08-16T19:37:16.810Z,294
2022-08-16T19:42:18.456Z,268.21053
2022-08-16T19:47:20.061Z,306.35294
2022-08-16T19:52:21.641Z,333.87342
2022-08-16T19:57:23.234Z,344
2022-08-16T20:02:36.066Z,331.42138
2022-08-16T20:07:38.524Z,310.66667
2022-08-16T20:12:40.226Z,333.87342
2022-08-16T20:17:43.816Z,324.24691
2022-08-16T20:22:54.229Z,331.42138
2022-08-16T20:27:56.279Z,331.42138
2022-08-16T20:32:57.871Z,360.21622
2022-08-16T20:37:59.483Z,387.16547
2022-08-16T20:43:01.675Z,363.04762
2022-08-16T20:48:03.382Z,393.63504
2022-08-16T20:53:04.982Z,396.94118
2022-08-16T20:58:06.574Z,368.82759
2022-08-16T21:03:08.198Z,421.51938
2022-08-16T21:08:29.408Z,384
2022-08-16T21:13:55.434Z,351.94702
2022-08-16T21:19:02.449Z,396.94118
2022-08-16T21:24:04.047Z,400.2963
2022-08-16T21:29:05.670Z,461.64706
2022-08-16T21:34:09.503Z,440.77419
2022-08-16T21:39:11.130Z,448.91803
2022-08-16T21:44:12.732Z,414.22901
2022-08-16T21:49:14.403Z,466.0339
2022-08-16T21:54:16.078Z,461.64706
2022-08-16T21:59:17.739Z,396.94118
2022-08-16T22:04:37.786Z,436.8
2022-08-16T22:09:40.669Z,421.51938
2022-08-16T22:14:42.279Z,333.87342
2022-08-16T22:19:43.895Z,461.64706
2022-08-16T22:24:45.506Z,425.25
2022-08-16T22:29:47.131Z,444.81301
2022-08-16T22:34:48.815Z,440.77419
2022-08-16T22:39:50.474Z,461.64706
2022-08-16T22:44:52.098Z,363.04762
2022-08-16T22:49:53.727Z,429.03937
2022-08-16T22:54:55.337Z,448.91803
2022-08-16T22:59:56.930Z,475.03448
2022-08-16T23:04:58.555Z,377.80282
2022-08-16T23:10:00.412Z,444.81301
2022-08-16T23:15:02.022Z,400.2963
2022-08-16T23:20:03.599Z,315.08434
2022-08-16T23:25:05.223Z,393.63504
2022-08-16T23:30:06.818Z,504
2022-08-16T23:35:08.587Z,536.30769
2022-08-16T23:40:10.238Z,560
2022-08-16T23:45:11.857Z,525.13208
2022-08-16T23:50:13.460Z,504
2022-08-16T23:55:16.464Z,579.05155
